Time;durP1;ratioP1;P1;durP2;ratioP2;P2;SDS_P1;SDS_P2;PMS_P1;PMS_P2;Temp;Humidity;BMP_temperature;BMP_pressure;BME280_temperature;BME280_humidity;BME280_pressure;Samples;Min_cycle;Max_cycle;Signal;HPM_P1;HPM_P2
2022/11/15 00:00:48;;;;;;;23.60;14.63;;;11.20;77.40;;;;;;4995403;28;20525;-73
2022/11/15 00:03:20;;;;;;;17.17;11.52;;;11.20;78.70;;;;;;4995431;28;20876;-74
2022/11/15 00:05:46;;;;;;;17.00;11.57;;;11.30;78.30;;;;;;4996118;28;20932;-73
2022/11/15 00:08:12;;;;;;;20.85;13.00;;;11.30;78.20;;;;;;4995280;28;20421;-73
2022/11/15 00:10:38;;;;;;;23.83;13.73;;;11.30;79.20;;;;;;4995211;28;20394;-73
2022/11/15 00:13:08;;;;;;;20.77;12.75;;;11.40;79.40;;;;;;4994733;28;20390;-72
2022/11/15 00:15:40;;;;;;;19.42;12.85;;;11.40;80.00;;;;;;4995349;28;20894;-73
2022/11/15 00:18:11;;;;;;;19.60;14.18;;;11.50;79.00;;;;;;4995603;28;20882;-73
2022/11/15 00:20:37;;;;;;;18.42;12.65;;;11.50;79.30;;;;;;4995581;28;21063;-73
2022/11/15 00:23:06;;;;;;;18.83;12.73;;;11.50;80.20;;;;;;4995880;28;20456;-72
2022/11/15 00:25:32;;;;;;;20.80;13.40;;;11.50;81.40;;;;;;4995049;28;20445;-73
2022/11/15 00:27:59;;;;;;;19.98;13.38;;;11.40;81.60;;;;;;4994807;28;20418;-73
2022/11/15 00:30:25;;;;;;;21.70;12.13;;;11.50;82.30;;;;;;4994430;28;20879;-73
2022/11/15 00:32:51;;;;;;;16.83;11.00;;;11.60;81.00;;;;;;4994927;28;20386;-72
2022/11/15 00:35:17;;;;;;;20.80;12.00;;;11.60;80.30;;;;;;4995009;28;20751;-73
2022/11/15 00:37:43;;;;;;;17.98;12.32;;;11.60;80.90;;;;;;4995092;28;20473;-73
2022/11/15 00:40:09;;;;;;;18.23;11.77;;;11.70;81.40;;;;;;4994678;28;20434;-74
2022/11/15 00:42:35;;;;;;;18.35;11.95;;;11.70;80.90;;;;;;4994751;28;20902;-73
2022/11/15 00:45:01;;;;;;;19.10;12.67;;;11.80;80.90;;;;;;4994862;28;20399;-73
2022/11/15 00:47:26;;;;;;;18.23;12.20;;;11.80;80.10;;;;;;4994459;28;20422;-73
2022/11/15 00:49:52;;;;;;;23.20;14.00;;;11.90;79.70;;;;;;4994604;28;20462;-72
2022/11/15 00:52:17;;;;;;;20.80;13.00;;;11.90;80.60;;;;;;4994718;28;20405;-72
2022/11/15 00:54:43;;;;;;;19.48;12.88;;;11.80;81.40;;;;;;4994852;28;20391;-72
2022/11/15 00:57:08;;;;;;;20.30;13.45;;;11.90;82.40;;;;;;4995661;28;20397;-73
2022/11/15 00:59:34;;;;;;;19.27;12.60;;;11.80;82.10;;;;;;4998688;28;20406;-72
2022/11/15 01:01:59;;;;;;;23.85;13.40;;;11.80;82.30;;;;;;4995877;28;20394;-73
2022/11/15 01:04:25;;;;;;;21.17;13.53;;;11.90;82.20;;;;;;4996083;28;20847;-73
2022/11/15 01:06:50;;;;;;;19.83;12.30;;;11.80;83.10;;;;;;5005088;28;20887;-72
2022/11/15 01:09:16;;;;;;;21.53;13.17;;;11.90;83.90;;;;;;5003643;28;20844;-74
2022/11/15 01:11:42;;;;;;;23.05;14.75;;;11.90;83.70;;;;;;4999360;28;20802;-73
2022/11/15 01:14:07;;;;;;;22.75;14.27;;;11.90;84.40;;;;;;4996335;28;20393;-73
2022/11/15 01:16:33;;;;;;;18.30;12.05;;;11.90;84.00;;;;;;4995158;28;20542;-73
2022/11/15 01:18:59;;;;;;;18.92;13.55;;;12.00;83.60;;;;;;4997441;28;20395;-73
2022/11/15 01:21:25;;;;;;;18.73;12.40;;;12.00;83.00;;;;;;4995754;28;20771;-74
2022/11/15 01:23:54;;;;;;;19.40;12.40;;;12.00;83.30;;;;;;4994351;28;20387;-72
2022/11/15 01:26:20;;;;;;;19.77;13.10;;;12.00;84.10;;;;;;4994318;28;20390;-73
2022/11/15 01:28:46;;;;;;;20.85;13.85;;;11.90;84.90;;;;;;4993527;28;20406;-74
2022/11/15 01:31:15;;;;;;;21.73;13.40;;;11.90;85.60;;;;;;4993393;28;20915;-73
2022/11/15 01:33:41;;;;;;;21.10;13.68;;;11.90;86.30;;;;;;4993718;28;20864;-72
2022/11/15 01:36:09;;;;;;;19.98;12.15;;;12.00;85.90;;;;;;4994228;28;20412;-73
2022/11/15 01:38:35;;;;;;;19.67;12.00;;;12.00;86.10;;;;;;4993796;28;20867;-73
2022/11/15 01:41:00;;;;;;;22.57;12.40;;;12.00;85.80;;;;;;4993747;28;20407;-73
2022/11/15 01:43:34;;;;;;;18.17;11.57;;;12.00;85.10;;;;;;4993550;28;20405;-73
2022/11/15 01:46:05;;;;;;;20.75;14.52;;;12.10;85.40;;;;;;4993480;28;20875;-73
2022/11/15 01:48:34;;;;;;;19.20;12.82;;;12.00;86.30;;;;;;4996836;28;20903;-72
2022/11/15 01:51:07;;;;;;;22.45;13.82;;;12.00;86.40;;;;;;4996350;28;20390;-72
2022/11/15 01:53:36;;;;;;;19.58;11.32;;;12.00;87.50;;;;;;4996106;28;20386;-72
2022/11/15 01:56:08;;;;;;;16.77;11.95;;;12.00;87.90;;;;;;4996585;28;20474;-73
2022/11/15 01:58:35;;;;;;;17.95;11.95;;;12.10;87.60;;;;;;4994719;28;20807;-74
2022/11/15 02:01:00;;;;;;;17.30;11.43;;;12.10;86.10;;;;;;4993421;28;20393;-74
2022/11/15 02:03:36;;;;;;;19.02;11.20;;;12.10;86.00;;;;;;4993030;28;20395;-73
2022/11/15 02:06:04;;;;;;;18.73;12.10;;;12.10;86.80;;;;;;4992970;28;20744;-73
2022/11/15 02:08:30;;;;;;;26.20;12.20;;;12.10;86.10;;;;;;4992840;28;20453;-71
2022/11/15 02:10:55;;;;;;;19.20;12.77;;;12.20;86.40;;;;;;4992891;28;20414;-73
2022/11/15 02:13:21;;;;;;;17.30;12.50;;;12.20;85.00;;;;;;4992966;28;20385;-73
2022/11/15 02:16:13;;;;;;;20.90;12.30;;;12.20;86.80;;;;;;4993449;28;20386;-74
2022/11/15 02:18:48;;;;;;;20.80;12.17;;;12.20;86.00;;;;;;4994238;28;20399;-73
2022/11/15 02:21:19;;;;;;;24.80;12.10;;;12.20;85.30;;;;;;4994555;28;20955;-73
2022/11/15 02:24:11;;;;;;;15.82;11.55;;;12.30;84.70;;;;;;4995118;28;20395;-73
2022/11/15 02:27:02;;;;;;;21.42;11.32;;;12.30;84.50;;;;;;4994072;28;20399;-74
2022/11/15 02:29:56;;;;;;;18.73;11.50;;;12.30;84.60;;;;;;4982956;28;20391;-73
2022/11/15 02:32:38;;;;;;;21.93;13.27;;;12.20;85.90;;;;;;4992419;28;20383;-73
2022/11/15 02:35:37;;;;;;;17.63;12.85;;;12.30;86.10;;;;;;4992487;28;20386;-72
2022/11/15 02:38:09;;;;;;;20.98;12.07;;;12.30;85.90;;;;;;4992161;28;20391;-72
2022/11/15 02:40:41;;;;;;;17.52;12.70;;;12.30;85.60;;;;;;4992381;28;20915;-73
2022/11/15 02:46:07;;;;;;;18.77;12.32;;;12.40;86.20;;;;;;4997442;28;20429;-74
2022/11/15 02:48:34;;;;;;;18.23;12.63;;;12.30;86.70;;;;;;4996577;28;20774;-73
2022/11/15 02:51:00;;;;;;;20.55;11.80;;;12.20;88.10;;;;;;4996055;28;20391;-74
2022/11/15 02:53:27;;;;;;;22.13;13.18;;;12.20;88.70;;;;;;4992664;28;20387;-73
2022/11/15 02:55:54;;;;;;;20.77;13.52;;;12.30;88.10;;;;;;4992423;28;20400;-72
2022/11/15 02:59:07;;;;;;;18.33;12.30;;;12.30;88.20;;;;;;4991214;28;20400;-73
2022/11/15 03:01:56;;;;;;;22.05;13.55;;;12.30;88.00;;;;;;4972361;28;20447;-73
2022/11/15 03:04:33;;;;;;;21.25;13.23;;;12.50;87.80;;;;;;4991857;28;20378;-73
2022/11/15 03:07:25;;;;;;;21.23;11.55;;;12.50;85.70;;;;;;4991819;28;20489;-74
2022/11/15 03:10:06;;;;;;;18.33;11.20;;;12.40;87.10;;;;;;4991862;28;20383;-73
2022/11/15 03:13:02;;;;;;;18.80;12.30;;;12.40;88.10;;;;;;4991597;28;20876;-75
2022/11/15 03:15:36;;;;;;;19.40;11.43;;;12.50;87.80;;;;;;4990112;28;20405;-73
2022/11/15 03:18:07;;;;;;;17.67;12.10;;;12.40;88.50;;;;;;4991763;28;20477;-73
2022/11/15 03:20:35;;;;;;;19.17;12.23;;;12.60;87.00;;;;;;4991663;28;20485;-73
2022/11/15 03:23:05;;;;;;;19.83;12.73;;;12.50;87.60;;;;;;4991706;28;20394;-74
2022/11/15 03:25:33;;;;;;;20.42;11.50;;;12.50;88.50;;;;;;4990241;28;20391;-73
2022/11/15 03:28:03;;;;;;;25.42;12.60;;;12.50;87.80;;;;;;4991842;28;20441;-73
2022/11/15 03:30:32;;;;;;;20.50;13.27;;;12.60;88.20;;;;;;4991801;28;20383;-74
2022/11/15 03:32:59;;;;;;;17.40;11.80;;;12.70;86.80;;;;;;4991943;28;20777;-74
2022/11/15 03:35:29;;;;;;;18.13;11.25;;;12.80;85.20;;;;;;4992162;28;20399;-74
2022/11/15 03:38:08;;;;;;;18.65;11.10;;;12.80;83.40;;;;;;4992466;28;20397;-74
2022/11/15 03:40:41;;;;;;;16.58;11.60;;;12.70;85.00;;;;;;4992833;28;20420;-73
2022/11/15 03:43:29;;;;;;;17.35;12.10;;;12.70;85.00;;;;;;4995289;28;20395;-74
2022/11/15 03:46:00;;;;;;;19.25;12.45;;;12.80;84.10;;;;;;4992086;28;20394;-73
2022/11/15 03:48:33;;;;;;;18.20;11.25;;;12.70;85.10;;;;;;4991992;28;20417;-74
2022/11/15 03:50:59;;;;;;;17.23;11.50;;;12.70;85.60;;;;;;4991594;28;20386;-73
2022/11/15 03:53:24;;;;;;;16.80;11.90;;;12.60;86.90;;;;;;4992267;28;20413;-74
2022/11/15 03:55:50;;;;;;;20.43;12.23;;;12.70;86.50;;;;;;4991963;28;20387;-75
2022/11/15 03:58:16;;;;;;;18.90;11.30;;;12.60;87.20;;;;;;4992266;28;20414;-73
2022/11/15 04:00:41;;;;;;;19.27;11.82;;;12.70;87.10;;;;;;4991482;28;20397;-73
2022/11/15 04:03:07;;;;;;;18.20;10.82;;;12.60;87.90;;;;;;4991357;28;20386;-74
2022/11/15 04:05:33;;;;;;;15.82;10.77;;;12.60;88.10;;;;;;4990089;28;20394;-74
2022/11/15 04:07:59;;;;;;;17.70;11.13;;;12.60;87.10;;;;;;4991435;28;20414;-75
2022/11/15 04:10:24;;;;;;;17.93;11.00;;;12.70;86.90;;;;;;4994496;28;20582;-74
2022/11/15 04:12:50;;;;;;;16.38;10.23;;;12.60;87.30;;;;;;4995558;28;20810;-73
2022/11/15 04:15:18;;;;;;;14.35;10.27;;;12.70;86.60;;;;;;4995879;28;20386;-74
2022/11/15 04:17:49;;;;;;;19.35;11.00;;;12.70;87.40;;;;;;4995918;28;20390;-74
2022/11/15 04:25:45;;;;;;;14.10;10.27;;;12.80;86.20;;;;;;5000708;28;20397;-73
2022/11/15 04:28:11;;;;;;;14.18;10.18;;;12.80;85.90;;;;;;5002915;28;20411;-74
2022/11/15 04:30:37;;;;;;;13.77;10.52;;;12.70;87.40;;;;;;4998009;28;20386;-73
2022/11/15 04:33:03;;;;;;;13.68;10.45;;;12.70;89.00;;;;;;4995816;28;20482;-73
2022/11/15 04:35:29;;;;;;;15.30;10.77;;;12.80;86.60;;;;;;4996124;28;20853;-73
2022/11/15 04:37:56;;;;;;;16.17;10.23;;;12.90;86.20;;;;;;4995688;28;20445;-73
2022/11/15 04:40:22;;;;;;;14.30;9.47;;;12.90;84.50;;;;;;5001723;28;20409;-74
2022/11/15 04:42:47;;;;;;;17.03;10.10;;;12.80;86.20;;;;;;5000974;28;20715;-73
2022/11/15 04:45:13;;;;;;;14.30;10.33;;;12.80;87.60;;;;;;5001629;28;20505;-74
2022/11/15 04:47:38;;;;;;;17.07;11.60;;;12.80;88.50;;;;;;5000687;28;20497;-73
2022/11/15 04:50:04;;;;;;;14.07;9.43;;;12.80;90.60;;;;;;5000794;28;20471;-73
2022/11/15 04:52:30;;;;;;;19.98;10.73;;;12.70;92.90;;;;;;4995003;28;20409;-74
2022/11/15 04:54:55;;;;;;;13.37;10.60;;;12.70;94.20;;;;;;4994712;28;20391;-73
2022/11/15 04:57:21;;;;;;;14.20;9.70;;;12.70;94.50;;;;;;4994134;28;20875;-73
2022/11/15 04:59:47;;;;;;;16.10;11.52;;;12.70;94.90;;;;;;4994269;28;20879;-74
2022/11/15 05:02:12;;;;;;;13.20;10.48;;;12.70;95.50;;;;;;4993745;28;20485;-74
2022/11/15 05:04:38;;;;;;;16.00;10.70;;;12.60;97.50;;;;;;4994062;28;20395;-75
2022/11/15 05:07:06;;;;;;;15.70;10.37;;;12.60;97.70;;;;;;4994634;28;20390;-73
2022/11/15 05:09:32;;;;;;;16.88;10.27;;;12.60;99.30;;;;;;4994264;28;20394;-74
2022/11/15 05:11:57;;;;;;;13.80;10.00;;;12.70;98.10;;;;;;4993845;28;20386;-74
2022/11/15 05:14:23;;;;;;;13.35;9.77;;;12.60;98.70;;;;;;4993666;28;20482;-74
2022/11/15 05:16:48;;;;;;;15.20;10.60;;;12.60;99.40;;;;;;4994095;28;20414;-74
2022/11/15 05:19:14;;;;;;;13.13;9.43;;;12.60;99.30;;;;;;4993619;28;20398;-74
2022/11/15 05:21:40;;;;;;;16.53;10.87;;;12.60;99.00;;;;;;4993002;28;20391;-74
2022/11/15 05:24:06;;;;;;;16.98;11.10;;;12.60;98.60;;;;;;4995102;28;20382;-74
2022/11/15 05:26:32;;;;;;;16.33;10.75;;;12.60;98.70;;;;;;4995034;28;20386;-74
2022/11/15 05:28:59;;;;;;;14.50;11.13;;;12.60;97.80;;;;;;5000437;28;20468;-74
2022/11/15 05:31:26;;;;;;;17.58;9.95;;;12.60;98.40;;;;;;5007008;28;20370;-72
2022/11/15 05:33:53;;;;;;;16.15;10.82;;;12.60;98.40;;;;;;5016221;28;20413;-73
2022/11/15 05:36:42;;;;;;;14.23;10.70;;;12.60;97.50;;;;;;5016314;28;20363;-73
2022/11/15 05:39:08;;;;;;;14.27;10.77;;;12.60;96.40;;;;;;5010663;28;20796;-74
2022/11/15 05:41:41;;;;;;;15.05;11.68;;;12.60;97.30;;;;;;4993449;28;20815;-73
2022/11/15 05:44:09;;;;;;;17.17;11.20;;;12.60;96.60;;;;;;4993327;28;20390;-74
2022/11/15 05:46:39;;;;;;;18.17;11.80;;;12.70;95.40;;;;;;4993465;28;20922;-73
2022/11/15 05:49:09;;;;;;;19.95;11.63;;;12.70;94.00;;;;;;4991831;28;20493;-72
2022/11/15 05:51:35;;;;;;;14.48;10.30;;;12.80;93.00;;;;;;4992440;28;20394;-73
2022/11/15 05:54:01;;;;;;;16.17;11.23;;;12.70;93.30;;;;;;4993645;28;20449;-74
2022/11/15 05:56:28;;;;;;;14.57;11.27;;;12.70;94.50;;;;;;4993478;28;20383;-74
2022/11/15 05:58:56;;;;;;;14.13;11.10;;;12.70;96.00;;;;;;4993093;28;20760;-74
2022/11/15 06:01:22;;;;;;;14.10;10.90;;;12.60;96.60;;;;;;4992585;28;20387;-73
2022/11/15 06:03:48;;;;;;;14.98;11.70;;;12.60;96.20;;;;;;4992655;28;20426;-73
2022/11/15 06:06:13;;;;;;;13.23;10.73;;;12.60;96.70;;;;;;4992551;28;20860;-73
2022/11/15 06:08:39;;;;;;;14.73;10.82;;;12.60;96.50;;;;;;4993458;28;20804;-74
2022/11/15 06:11:06;;;;;;;15.43;11.20;;;12.60;97.00;;;;;;4993432;28;20856;-73
2022/11/15 06:13:32;;;;;;;12.68;10.73;;;12.60;97.70;;;;;;4992677;28;20451;-74
2022/11/15 06:15:58;;;;;;;15.52;11.57;;;12.70;96.50;;;;;;4996708;28;20382;-73
2022/11/15 06:18:24;;;;;;;13.30;9.63;;;12.80;95.40;;;;;;4996141;28;20416;-73
2022/11/15 06:20:49;;;;;;;13.40;9.70;;;12.80;95.00;;;;;;4994857;28;20390;-74
2022/11/15 06:23:15;;;;;;;11.85;9.98;;;12.70;97.60;;;;;;4992849;28;20748;-74
2022/11/15 06:25:40;;;;;;;14.68;10.40;;;12.70;98.50;;;;;;4992547;28;20501;-72
2022/11/15 06:28:06;;;;;;;14.18;10.02;;;12.70;99.50;;;;;;4991861;28;20410;-74
2022/11/15 06:30:31;;;;;;;17.00;10.93;;;12.60;99.90;;;;;;4992335;28;20387;-72
2022/11/15 06:33:02;;;;;;;14.80;10.60;;;12.60;99.90;;;;;;4991816;28;20476;-73
2022/11/15 06:35:28;;;;;;;14.07;10.20;;;12.60;99.90;;;;;;4991959;28;20409;-73
2022/11/15 06:37:54;;;;;;;13.80;10.25;;;12.60;99.90;;;;;;4996398;28;20386;-73
2022/11/15 06:40:20;;;;;;;11.87;8.80;;;12.50;99.90;;;;;;5005889;28;20446;-73
2022/11/15 06:42:45;;;;;;;14.73;8.63;;;12.60;99.90;;;;;;5004308;28;20386;-73
2022/11/15 06:45:11;;;;;;;11.07;8.80;;;12.60;98.40;;;;;;5010071;28;20398;-73
2022/11/15 06:47:45;;;;;;;11.07;7.80;;;12.70;96.80;;;;;;5007041;28;20414;-74
2022/11/15 06:50:11;;;;;;;10.37;8.57;;;12.70;95.40;;;;;;4995309;28;21067;-74
2022/11/15 06:52:36;;;;;;;15.03;9.73;;;12.70;94.50;;;;;;4993855;28;20394;-73
2022/11/15 06:55:02;;;;;;;11.77;9.50;;;12.70;94.90;;;;;;4993559;28;20445;-73
2022/11/15 06:57:27;;;;;;;12.57;8.50;;;12.70;95.40;;;;;;4993192;28;20398;-73
2022/11/15 06:59:53;;;;;;;11.23;8.30;;;12.70;95.70;;;;;;4995263;28;20394;-73
2022/11/15 07:02:18;;;;;;;9.88;7.60;;;12.70;95.40;;;;;;4994204;28;20387;-74
2022/11/15 07:04:44;;;;;;;10.90;8.33;;;12.70;93.90;;;;;;4994632;28;20394;-74
2022/11/15 07:07:10;;;;;;;12.03;8.40;;;12.80;93.00;;;;;;4995484;28;20417;-73
2022/11/15 07:09:35;;;;;;;11.07;7.57;;;12.80;91.40;;;;;;4996731;28;20884;-73
2022/11/15 07:12:01;;;;;;;10.20;7.27;;;12.80;89.80;;;;;;4994377;28;20899;-73
2022/11/15 07:14:26;;;;;;;9.27;6.70;;;12.90;87.60;;;;;;4992167;28;20394;-75
2022/11/15 07:16:52;;;;;;;9.40;7.50;;;12.90;87.50;;;;;;4991631;28;20756;-74
2022/11/15 07:19:17;;;;;;;9.53;6.87;;;12.90;87.60;;;;;;4991881;28;20393;-76
2022/11/15 07:21:43;;;;;;;10.87;7.07;;;12.80;86.60;;;;;;4991339;28;20827;-73
2022/11/15 07:24:08;;;;;;;9.23;6.80;;;12.90;86.40;;;;;;4991808;28;20425;-72
2022/11/15 07:26:34;;;;;;;8.77;6.25;;;12.80;86.40;;;;;;4991640;28;20821;-73
2022/11/15 07:28:59;;;;;;;8.40;5.90;;;12.90;83.80;;;;;;4992328;28;20402;-74
2022/11/15 07:31:25;;;;;;;8.38;6.10;;;12.90;82.60;;;;;;4992194;28;20402;-75
2022/11/15 07:33:51;;;;;;;9.60;5.93;;;12.80;82.90;;;;;;4994352;28;20389;-74
2022/11/15 07:36:16;;;;;;;6.93;5.33;;;12.90;79.80;;;;;;4995968;28;20382;-73
2022/11/15 07:38:42;;;;;;;7.40;5.40;;;13.00;78.80;;;;;;4994451;28;20394;-72
2022/11/15 07:41:08;;;;;;;7.20;5.00;;;13.00;76.80;;;;;;4996291;28;20394;-75
2022/11/15 07:43:34;;;;;;;6.72;4.78;;;13.10;73.90;;;;;;4995100;28;20502;-73
2022/11/15 07:46:09;;;;;;;9.32;5.32;;;13.10;74.20;;;;;;4996591;28;20387;-75
2022/11/15 07:48:35;;;;;;;7.20;5.47;;;13.10;75.10;;;;;;4995908;28;20498;-73
2022/11/15 07:51:01;;;;;;;6.70;4.97;;;13.10;73.10;;;;;;4995062;28;20751;-73
2022/11/15 07:53:26;;;;;;;10.50;5.27;;;13.20;70.40;;;;;;4995222;28;20390;-72
2022/11/15 07:55:53;;;;;;;9.93;6.03;;;13.20;70.50;;;;;;4996395;28;20466;-75
2022/11/15 07:58:19;;;;;;;6.75;5.10;;;13.10;70.90;;;;;;4995318;28;20896;-74
2022/11/15 08:00:45;;;;;;;8.60;5.25;;;13.20;69.70;;;;;;4994932;28;20414;-73
2022/11/15 08:03:15;;;;;;;6.40;4.80;;;13.20;70.30;;;;;;4995313;28;20594;-75
2022/11/15 08:05:42;;;;;;;11.90;4.90;;;13.10;69.30;;;;;;4995435;28;20465;-74
2022/11/15 08:08:09;;;;;;;9.60;5.05;;;13.10;70.80;;;;;;4995910;28;20446;-74
2022/11/15 08:10:35;;;;;;;8.45;4.97;;;13.10;69.60;;;;;;4995436;28;20394;-73
2022/11/15 08:13:05;;;;;;;12.27;5.28;;;13.10;70.80;;;;;;4994790;28;20411;-73
2022/11/15 08:15:31;;;;;;;13.95;6.40;;;13.20;70.80;;;;;;4994943;28;20387;-73
2022/11/15 08:17:58;;;;;;;9.32;5.68;;;13.20;71.00;;;;;;4994852;28;20488;-76
2022/11/15 08:20:25;;;;;;;8.63;5.57;;;13.20;69.40;;;;;;4994642;28;20419;-75
2022/11/15 08:22:50;;;;;;;10.88;5.88;;;13.40;67.60;;;;;;4995370;28;20489;-75
2022/11/15 08:25:16;;;;;;;10.43;5.30;;;13.50;65.80;;;;;;4995334;28;20381;-74
2022/11/15 08:27:42;;;;;;;8.93;5.20;;;13.50;65.00;;;;;;4996053;28;20424;-73
2022/11/15 08:30:08;;;;;;;13.18;5.50;;;13.50;64.60;;;;;;4995402;28;20394;-74
2022/11/15 08:32:33;;;;;;;13.30;5.70;;;13.50;64.40;;;;;;4992949;28;20474;-74
2022/11/15 08:34:59;;;;;;;9.43;5.10;;;13.50;64.10;;;;;;4995371;28;20410;-74
2022/11/15 08:37:24;;;;;;;12.43;5.43;;;13.40;65.10;;;;;;4996747;28;20875;-75
2022/11/15 08:39:50;;;;;;;11.60;5.60;;;13.40;65.90;;;;;;4994836;28;20999;-73
2022/11/15 08:42:16;;;;;;;11.43;5.60;;;13.60;64.20;;;;;;4996048;28;20390;-72
2022/11/15 08:44:41;;;;;;;7.28;5.40;;;13.80;61.70;;;;;;4997220;28;20448;-74
2022/11/15 08:47:10;;;;;;;12.00;5.07;;;14.00;58.40;;;;;;5005343;28;20409;-74
2022/11/15 08:49:36;;;;;;;6.85;4.30;;;14.20;55.90;;;;;;5013593;28;20470;-74
2022/11/15 08:52:01;;;;;;;9.18;3.72;;;14.40;53.10;;;;;;5012797;28;20389;-73
2022/11/15 08:54:27;;;;;;;9.90;4.00;;;14.40;51.80;;;;;;5013815;28;20531;-74
2022/11/15 08:56:52;;;;;;;7.03;4.00;;;14.20;52.40;;;;;;5013113;28;20393;-73
2022/11/15 08:59:18;;;;;;;8.52;3.90;;;14.10;51.70;;;;;;5011209;28;20396;-73
2022/11/15 09:01:43;;;;;;;5.72;3.88;;;14.00;52.80;;;;;;5013016;28;20401;-74
2022/11/15 09:04:09;;;;;;;7.30;3.70;;;13.80;52.20;;;;;;5015215;28;20539;-75
2022/11/15 09:06:34;;;;;;;10.10;4.17;;;13.70;52.70;;;;;;5012993;28;20412;-75
2022/11/15 09:09:01;;;;;;;11.73;4.27;;;13.50;53.60;;;;;;5011093;28;20416;-76
2022/11/15 09:11:27;;;;;;;6.30;3.35;;;13.60;52.10;;;;;;5013744;28;20396;-75
2022/11/15 09:13:52;;;;;;;8.05;3.88;;;13.50;52.40;;;;;;5012602;28;20914;-74
2022/11/15 09:16:18;;;;;;;10.93;4.30;;;13.80;50.50;;;;;;5013647;28;20468;-76
2022/11/15 09:18:43;;;;;;;6.70;3.80;;;13.90;51.20;;;;;;5013834;28;20396;-75
2022/11/15 09:21:10;;;;;;;8.57;2.90;;;13.90;49.30;;;;;;5013564;28;20403;-75
2022/11/15 09:23:36;;;;;;;5.03;3.08;;;13.80;49.00;;;;;;5013827;28;20396;-75
2022/11/15 09:26:03;;;;;;;7.00;3.55;;;13.90;46.00;;;;;;5013567;28;20418;-76
2022/11/15 09:28:29;;;;;;;11.98;4.10;;;13.90;47.60;;;;;;5013623;28;20409;-76
2022/11/15 09:31:03;;;;;;;6.35;3.00;;;13.80;47.60;;;;;;5012538;28;20400;-75
2022/11/15 09:33:29;;;;;;;7.07;3.77;;;13.80;47.30;;;;;;5013874;28;20480;-75
2022/11/15 09:36:01;;;;;;;3.10;2.70;;;13.80;46.10;;;;;;5014016;28;20866;-74
2022/11/15 09:38:26;;;;;;;12.63;3.10;;;13.80;46.50;;;;;;5013123;28;20403;-74
2022/11/15 09:41:07;;;;;;;9.05;3.60;;;13.80;45.90;;;;;;5033751;28;20411;-74
2022/11/15 09:44:04;;;;;;;15.98;4.05;;;13.80;46.70;;;;;;5029085;28;20388;-74
2022/11/15 09:47:00;;;;;;;12.13;4.17;;;13.70;47.30;;;;;;5014861;28;20396;-73
2022/11/15 09:49:26;;;;;;;5.40;3.10;;;14.00;46.80;;;;;;4998105;28;20405;-74
2022/11/15 09:51:53;;;;;;;7.73;3.30;;;13.90;45.50;;;;;;5018798;28;20936;-74
2022/11/15 09:54:35;;;;;;;4.60;2.90;;;13.80;45.20;;;;;;5018179;28;20438;-74
2022/11/15 09:57:16;;;;;;;5.75;3.60;;;13.80;44.50;;;;;;5016851;28;20908;-74
2022/11/15 10:00:09;;;;;;;6.25;2.67;;;13.80;45.00;;;;;;5011106;28;20401;-73
2022/11/15 10:03:11;;;;;;;4.85;2.72;;;13.70;44.10;;;;;;5011507;28;20389;-74
2022/11/15 10:06:00;;;;;;;5.37;2.10;;;13.80;41.00;;;;;;5011322;28;20393;-75
2022/11/15 10:08:26;;;;;;;11.07;2.30;;;13.80;39.60;;;;;;5012553;28;20416;-75
2022/11/15 10:10:58;;;;;;;7.40;3.40;;;13.90;39.00;;;;;;5012647;28;20925;-74
2022/11/15 10:13:26;;;;;;;4.05;2.30;;;13.90;39.60;;;;;;5012182;28;20408;-75
2022/11/15 10:15:54;;;;;;;3.78;2.05;;;13.80;39.00;;;;;;5013354;28;20391;-75
2022/11/15 10:18:29;;;;;;;6.50;2.40;;;13.80;39.30;;;;;;5023775;28;20403;-75
2022/11/15 10:21:10;;;;;;;6.13;3.10;;;13.80;39.90;;;;;;5014102;28;20497;-74
2022/11/15 10:23:36;;;;;;;10.95;3.50;;;13.80;41.40;;;;;;5000154;28;20418;-74
2022/11/15 10:26:07;;;;;;;6.10;2.83;;;13.80;42.20;;;;;;5012739;28;20408;-75
2022/11/15 10:28:33;;;;;;;10.80;2.97;;;13.90;41.70;;;;;;5020705;28;20464;-75
2022/11/15 10:31:00;;;;;;;14.10;3.30;;;14.00;39.30;;;;;;5016734;28;20404;-76
2022/11/15 10:33:29;;;;;;;3.47;2.20;;;13.90;38.30;;;;;;5018038;28;20459;-74
2022/11/15 10:36:14;;;;;;;7.55;2.80;;;13.90;38.10;;;;;;5019868;28;20393;-75
2022/11/15 10:38:49;;;;;;;6.60;2.60;;;13.90;39.00;;;;;;5018281;28;20424;-74
2022/11/15 10:41:27;;;;;;;6.27;2.20;;;14.00;37.60;;;;;;5020013;28;20404;-75
2022/11/15 10:44:14;;;;;;;6.63;2.60;;;14.10;36.30;;;;;;5019888;28;20482;-76
2022/11/15 10:46:41;;;;;;;10.48;4.50;;;14.10;35.70;;;;;;5013596;28;20389;-75
2022/11/15 10:49:28;;;;;;;4.47;2.40;;;14.10;36.20;;;;;;5012924;28;20404;-76
2022/11/15 10:52:02;;;;;;;5.83;2.93;;;14.00;35.60;;;;;;5012705;28;20454;-75
2022/11/15 10:54:27;;;;;;;9.50;3.00;;;13.90;36.50;;;;;;5010941;28;20389;-74
2022/11/15 10:56:57;;;;;;;7.60;3.00;;;13.90;36.60;;;;;;5019308;28;20528;-76
2022/11/15 10:59:31;;;;;;;6.18;2.60;;;13.90;36.30;;;;;;5032111;28;20501;-75
2022/11/15 11:01:57;;;;;;;11.73;3.40;;;13.90;35.50;;;;;;5031556;28;20927;-75
2022/11/15 11:04:23;;;;;;;15.00;2.50;;;13.90;35.60;;;;;;5030920;28;20729;-75
2022/11/15 11:06:57;;;;;;;6.25;2.50;;;13.90;34.00;;;;;;5031470;28;20483;-75
2022/11/15 11:09:36;;;;;;;7.90;2.70;;;14.10;34.60;;;;;;5031613;28;20402;-75
2022/11/15 11:12:09;;;;;;;13.13;2.75;;;14.10;33.70;;;;;;5029934;28;20463;-75
2022/11/15 11:14:37;;;;;;;7.28;2.30;;;14.10;33.10;;;;;;5032275;28;20798;-75
2022/11/15 11:17:13;;;;;;;3.03;1.80;;;14.10;32.90;;;;;;5012084;28;20404;-75
2022/11/15 11:20:06;;;;;;;6.75;2.22;;;14.20;32.90;;;;;;5013787;28;20846;-73
2022/11/15 11:22:49;;;;;;;5.40;1.57;;;14.20;32.50;;;;;;5015576;28;20418;-76
2022/11/15 11:25:39;;;;;;;12.73;6.22;;;14.20;30.90;;;;;;5025052;28;20394;-76
2022/11/15 11:28:33;;;;;;;4.43;2.50;;;14.30;31.50;;;;;;5034963;28;20407;-75
2022/11/15 11:31:15;;;;;;;6.00;1.90;;;14.30;30.80;;;;;;5035401;28;20466;-75
2022/11/15 11:34:00;;;;;;;7.00;1.83;;;14.50;30.20;;;;;;5031740;28;20388;-75
2022/11/15 11:36:49;;;;;;;5.50;1.95;;;14.60;26.60;;;;;;5014802;28;20467;-74
2022/11/15 11:39:31;;;;;;;7.47;2.20;;;14.50;26.60;;;;;;5015596;28;20407;-73
2022/11/15 11:42:37;;;;;;;5.07;1.75;;;14.70;25.80;;;;;;5015512;28;20399;-74
2022/11/15 11:45:35;;;;;;;10.03;4.33;;;14.60;23.90;;;;;;5015050;28;20447;-74
2022/11/15 11:48:08;;;;;;;6.45;2.13;;;14.70;25.60;;;;;;5014782;28;20484;-73
2022/11/15 11:50:37;;;;;;;4.97;1.50;;;14.60;23.90;;;;;;5015578;28;20385;-74
2022/11/15 11:53:12;;;;;;;5.97;2.50;;;14.70;24.40;;;;;;5014533;28;20392;-73
2022/11/15 11:55:42;;;;;;;7.20;1.80;;;14.70;24.70;;;;;;5018332;28;20389;-73
2022/11/15 11:58:20;;;;;;;5.93;1.50;;;14.60;23.90;;;;;;5022529;28;20388;-74
2022/11/15 12:00:58;;;;;;;6.10;1.90;;;14.70;23.60;;;;;;5022536;28;20428;-74
2022/11/15 12:03:45;;;;;;;4.10;1.52;;;14.60;23.60;;;;;;5019676;28;20905;-74
2022/11/15 12:06:17;;;;;;;9.32;2.70;;;14.70;23.70;;;;;;5028361;28;20949;-74
2022/11/15 12:09:09;;;;;;;7.70;1.75;;;14.70;23.30;;;;;;5014303;28;20447;-74
2022/11/15 12:11:47;;;;;;;10.15;2.80;;;14.60;22.80;;;;;;5014401;28;20487;-73
2022/11/15 12:14:24;;;;;;;5.50;2.25;;;14.60;23.90;;;;;;5015370;28;20388;-74
2022/11/15 12:16:50;;;;;;;7.88;1.60;;;14.60;23.30;;;;;;5015228;28;20389;-74
2022/11/15 12:19:15;;;;;;;8.40;2.00;;;14.60;23.10;;;;;;5013013;28;20415;-73
2022/11/15 12:21:58;;;;;;;7.15;2.10;;;14.60;23.70;;;;;;5017136;28;20401;-75
2022/11/15 12:24:37;;;;;;;5.72;2.55;;;14.60;23.90;;;;;;5016876;28;20393;-73
2022/11/15 12:27:21;;;;;;;9.40;1.98;;;14.50;24.40;;;;;;5004024;28;20443;-74
2022/11/15 12:29:52;;;;;;;11.23;2.67;;;14.60;24.40;;;;;;5016539;28;20381;-74
2022/11/15 12:32:32;;;;;;;7.30;1.92;;;14.50;24.70;;;;;;5017262;28;20754;-73
2022/11/15 12:35:00;;;;;;;5.55;2.45;;;14.60;24.80;;;;;;5017030;28;20377;-73
2022/11/15 12:37:37;;;;;;;8.10;2.75;;;14.50;25.30;;;;;;5016550;28;20738;-73
2022/11/15 12:40:08;;;;;;;9.00;2.75;;;14.50;25.90;;;;;;5015804;28;20397;-74
2022/11/15 12:42:59;;;;;;;7.20;3.20;;;14.50;26.00;;;;;;5014665;28;20396;-74
2022/11/15 12:45:31;;;;;;;7.80;2.25;;;14.60;26.40;;;;;;5015873;28;20392;-74
2022/11/15 12:48:16;;;;;;;6.22;3.45;;;14.70;26.20;;;;;;5018094;28;20408;-74
2022/11/15 12:51:08;;;;;;;12.60;3.50;;;14.80;26.50;;;;;;5017369;28;20391;-73
2022/11/15 12:53:34;;;;;;;8.23;2.78;;;14.90;26.40;;;;;;5019541;28;20427;-73
2022/11/15 12:56:03;;;;;;;8.18;3.15;;;15.00;26.40;;;;;;5018781;28;20471;-73
2022/11/15 12:59:05;;;;;;;8.52;2.30;;;15.10;26.20;;;;;;5018111;28;20387;-73
2022/11/15 13:01:30;;;;;;;7.63;2.57;;;15.10;26.50;;;;;;5015781;28;20401;-74